createdAt,value
2023-03-29T00:00:09.628Z,101555.88
2023-03-29T00:02:39.467Z,101570.88
2023-03-29T00:05:08.427Z,101578.78
2023-03-29T00:07:36.218Z,101572.63
2023-03-29T00:10:04.803Z,101580.59
2023-03-29T00:12:32.403Z,101561.22
2023-03-29T00:14:59.991Z,101570.94
2023-03-29T00:17:27.901Z,101553.25
2023-03-29T00:19:55.443Z,101571.84
2023-03-29T00:22:22.834Z,101557.69
2023-03-29T00:24:54.216Z,101566.47
2023-03-29T00:27:22.106Z,101554.97
2023-03-29T00:29:49.515Z,101544.41
2023-03-29T00:32:17.117Z,101544.41
2023-03-29T00:34:45.905Z,101552.44
2023-03-29T00:37:14.900Z,101550.59
2023-03-29T00:39:42.489Z,101538.19
2023-03-29T00:42:13.819Z,101543.41
2023-03-29T00:44:58.393Z,101531.03
2023-03-29T00:47:28.040Z,101532.00
2023-03-29T00:50:00.400Z,101521.31
2023-03-29T00:52:32.182Z,101501.03
2023-03-29T00:55:02.798Z,101492.16
2023-03-29T00:57:32.561Z,101485.09
2023-03-29T01:00:01.800Z,101489.50
2023-03-29T01:02:34.747Z,101497.44
2023-03-29T01:05:08.527Z,101496.47
2023-03-29T01:07:49.387Z,101471.69
2023-03-29T01:10:48.488Z,101459.16
2023-03-29T01:13:37.193Z,101450.22
2023-03-29T01:16:09.129Z,101453.94
2023-03-29T01:18:36.749Z,101456.63
2023-03-29T01:21:29.353Z,101430.00
2023-03-29T01:24:06.699Z,101437.88
2023-03-29T01:26:51.174Z,101445.84
2023-03-29T01:29:31.710Z,101440.69
2023-03-29T01:32:20.308Z,101439.72
2023-03-29T01:35:02.683Z,101446.00
2023-03-29T01:37:37.730Z,101446.91
2023-03-29T01:40:06.345Z,101439.00
2023-03-29T01:42:36.619Z,101462.97
2023-03-29T01:45:19.131Z,101463.94
2023-03-29T01:47:57.571Z,101467.50
2023-03-29T01:50:37.209Z,101482.59
2023-03-29T01:53:07.702Z,101474.63
2023-03-29T01:55:40.254Z,101470.28
2023-03-29T01:58:11.784Z,101468.47
2023-03-29T02:00:42.179Z,101456.06
2023-03-29T02:03:10.635Z,101455.22
2023-03-29T02:05:39.521Z,101445.41
2023-03-29T02:08:09.279Z,101458.69
2023-03-29T02:10:37.115Z,101462.34
2023-03-29T02:13:05.650Z,101464.06
2023-03-29T02:15:34.512Z,101465.88
2023-03-29T02:18:06.633Z,101458.81
2023-03-29T02:20:39.076Z,101472.13
2023-03-29T02:23:30.468Z,101472.03
2023-03-29T02:25:58.326Z,101475.59
2023-03-29T02:28:27.708Z,101479.16
2023-03-29T02:31:21.205Z,101478.31
2023-03-29T02:33:58.823Z,101465.88
2023-03-29T02:36:34.323Z,101459.66
2023-03-29T02:39:04.623Z,101456.19
2023-03-29T02:41:33.813Z,101457.91
2023-03-29T02:44:04.216Z,101462.31
2023-03-29T02:46:32.059Z,101455.31
2023-03-29T02:49:00.413Z,101455.28
2023-03-29T02:51:34.219Z,101450.81
2023-03-29T02:54:08.256Z,101449.03
2023-03-29T02:56:43.490Z,101449.94
2023-03-29T02:59:12.236Z,101455.25
2023-03-29T03:01:42.822Z,101457.00
2023-03-29T03:04:11.087Z,101466.78
2023-03-29T03:06:38.770Z,101456.19
2023-03-29T03:09:07.319Z,101458.91
2023-03-29T03:11:37.402Z,101451.81
2023-03-29T03:14:05.769Z,101452.69
2023-03-29T03:16:33.474Z,101462.44
2023-03-29T03:19:01.003Z,101463.28
2023-03-29T03:21:28.508Z,101461.47
2023-03-29T03:23:56.110Z,101453.53
2023-03-29T03:26:30.086Z,101450.84
2023-03-29T03:28:57.679Z,101455.31
2023-03-29T03:31:45.042Z,101450.91
2023-03-29T03:34:30.997Z,101462.38
2023-03-29T03:37:01.898Z,101460.66
2023-03-29T03:39:31.696Z,101454.44
2023-03-29T03:41:59.905Z,101453.56
2023-03-29T03:44:28.252Z,101462.38
2023-03-29T03:47:21.779Z,101456.25
2023-03-29T03:49:49.337Z,101466.00
2023-03-29T03:52:18.805Z,101468.63
2023-03-29T03:54:48.181Z,101474.81
2023-03-29T03:57:38.818Z,101463.34
2023-03-29T04:00:21.469Z,101451.84
2023-03-29T04:03:09.034Z,101455.31
2023-03-29T04:05:41.078Z,101459.78
2023-03-29T04:08:09.265Z,101453.63
2023-03-29T04:11:09.257Z,101464.19
2023-03-29T04:13:38.823Z,101464.22
2023-03-29T04:16:28.480Z,101462.44
2023-03-29T04:18:59.863Z,101470.34
2023-03-29T04:21:27.931Z,101464.97
2023-03-29T04:23:55.291Z,101471.19
2023-03-29T04:26:23.036Z,101467.69
2023-03-29T04:28:57.104Z,101460.53
2023-03-29T04:31:42.521Z,101462.34
2023-03-29T04:34:23.498Z,101468.53
2023-03-29T04:36:53.939Z,101472.94
2023-03-29T04:39:32.137Z,101470.25
2023-03-29T04:42:00.368Z,101482.66
2023-03-29T04:44:29.812Z,101480.00
2023-03-29T04:47:00.348Z,101486.25
2023-03-29T04:50:03.639Z,101488.03
2023-03-29T04:52:38.851Z,101487.97
2023-03-29T04:55:07.957Z,101479.97
2023-03-29T04:57:53.546Z,101488.91
2023-03-29T05:00:27.597Z,101481.75
2023-03-29T05:02:55.060Z,101488.88
2023-03-29T05:05:23.268Z,101491.50
2023-03-29T05:07:51.676Z,101496.78
2023-03-29T05:10:24.345Z,101492.34
2023-03-29T05:12:54.107Z,101484.44
2023-03-29T05:15:23.266Z,101486.19
2023-03-29T05:17:50.600Z,101469.34
2023-03-29T05:20:21.512Z,101476.34
2023-03-29T05:22:49.057Z,101483.41
2023-03-29T05:25:36.313Z,101492.25
2023-03-29T05:28:04.149Z,101483.44
2023-03-29T05:30:31.623Z,101482.63
2023-03-29T05:33:05.902Z,101476.50
2023-03-29T05:35:36.056Z,101477.38
2023-03-29T05:38:07.563Z,101480.91
2023-03-29T05:40:35.825Z,101477.38
2023-03-29T05:43:29.217Z,101481.84
2023-03-29T05:45:56.837Z,101493.34
2023-03-29T05:48:25.820Z,101496.03
2023-03-29T05:50:55.524Z,101496.06
2023-03-29T05:53:24.659Z,101509.28
2023-03-29T05:55:52.292Z,101503.97
2023-03-29T05:58:22.838Z,101498.69
2023-03-29T06:00:51.363Z,101498.69
2023-03-29T06:03:35.005Z,101508.41
2023-03-29T06:06:03.917Z,101508.41
2023-03-29T06:08:33.634Z,101511.00
2023-03-29T06:11:15.571Z,101512.75
2023-03-29T06:14:02.430Z,101514.47
2023-03-29T06:16:30.764Z,101511.81
2023-03-29T06:18:58.257Z,101516.28
2023-03-29T06:21:27.229Z,101517.19
2023-03-29T06:23:55.443Z,101516.22
2023-03-29T06:26:23.988Z,101512.66
2023-03-29T06:28:52.429Z,101501.16
2023-03-29T06:31:21.150Z,101494.00
2023-03-29T06:33:51.348Z,101502.78
2023-03-29T06:36:41.282Z,101500.09
2023-03-29T06:39:08.780Z,101504.38
2023-03-29T06:41:56.869Z,101510.34
2023-03-29T06:44:39.813Z,101516.41
2023-03-29T06:47:13.990Z,101522.38
2023-03-29T06:49:41.512Z,101518.59
2023-03-29T06:52:27.330Z,101516.53
2023-03-29T06:55:01.799Z,101519.09
2023-03-29T06:57:29.749Z,101522.56
2023-03-29T06:59:57.602Z,101527.66
2023-03-29T07:02:34.793Z,101523.28
2023-03-29T07:05:13.571Z,101528.53
2023-03-29T07:08:05.372Z,101537.84
2023-03-29T07:10:54.282Z,101542.63
2023-03-29T07:13:27.700Z,101531.25
2023-03-29T07:15:57.535Z,101534.00
2023-03-29T07:18:37.259Z,101537.50
2023-03-29T07:21:06.421Z,101548.16
2023-03-29T07:23:36.024Z,101564.22
2023-03-29T07:26:10.580Z,101559.75
2023-03-29T07:28:39.483Z,101565.09
2023-03-29T07:31:11.142Z,101564.16
2023-03-29T07:33:45.467Z,101561.38
2023-03-29T07:36:13.903Z,101576.31
2023-03-29T07:38:41.830Z,101563.81
2023-03-29T07:41:14.428Z,101570.91
2023-03-29T07:43:51.979Z,101567.44
2023-03-29T07:46:24.366Z,101563.53
2023-03-29T07:48:52.203Z,101570.78
2023-03-29T07:51:20.497Z,101580.88
2023-03-29T07:53:59.969Z,101568.63
2023-03-29T07:56:41.684Z,101577.16
2023-03-29T07:59:35.486Z,101573.41
2023-03-29T08:02:11.237Z,101556.47
2023-03-29T08:04:41.626Z,101560.31
2023-03-29T08:07:20.137Z,101558.56
2023-03-29T08:09:53.492Z,101552.63
2023-03-29T08:12:28.354Z,101555.06
2023-03-29T08:14:57.698Z,101558.09
2023-03-29T08:17:29.944Z,101543.75
2023-03-29T08:19:58.412Z,101546.50
2023-03-29T08:22:25.984Z,101540.66
2023-03-29T08:25:28.574Z,101530.13
2023-03-29T08:27:56.864Z,101524.19
2023-03-29T08:30:50.809Z,101522.81
2023-03-29T08:33:18.543Z,101531.03
2023-03-29T08:35:50.710Z,101538.59
2023-03-29T08:38:25.307Z,101538.69
2023-03-29T08:40:53.395Z,101533.16
2023-03-29T08:43:49.637Z,101538.97
2023-03-29T08:46:55.820Z,101530.34
2023-03-29T08:49:30.857Z,101537.88
2023-03-29T08:52:02.668Z,101541.13
2023-03-29T08:54:40.177Z,101536.53
2023-03-29T08:57:29.306Z,101525.91
2023-03-29T09:00:06.776Z,101531.38
2023-03-29T09:02:38.409Z,101528.53
2023-03-29T09:05:25.818Z,101516.66
2023-03-29T09:08:03.787Z,101527.72
2023-03-29T09:10:44.559Z,101520.72
2023-03-29T09:13:21.593Z,101520.97
2023-03-29T09:15:54.528Z,101518.78
2023-03-29T09:18:49.185Z,101513.34
2023-03-29T09:21:27.663Z,101513.84
2023-03-29T09:24:07.703Z,101524.25
2023-03-29T09:27:02.932Z,101511.38
2023-03-29T09:29:50.348Z,101509.09
2023-03-29T09:32:23.184Z,101500.50
2023-03-29T09:35:14.249Z,101515.03
2023-03-29T09:37:42.442Z,101508.16
2023-03-29T09:40:22.115Z,101516.41
2023-03-29T09:43:02.266Z,101500.63
2023-03-29T09:45:30.844Z,101507.53
2023-03-29T09:48:09.610Z,101501.56
2023-03-29T09:50:41.821Z,101514.16
2023-03-29T09:53:10.963Z,101507.16
2023-03-29T09:55:46.716Z,101497.84
2023-03-29T09:58:36.715Z,101501.16
2023-03-29T10:01:10.337Z,101492.91
2023-03-29T10:03:40.019Z,101499.00
2023-03-29T10:06:12.537Z,101488.75
2023-03-29T10:08:51.875Z,101485.75
2023-03-29T10:11:19.981Z,101481.56
2023-03-29T10:13:50.623Z,101481.19
2023-03-29T10:16:22.296Z,101475.00
2023-03-29T10:18:54.593Z,101469.72
2023-03-29T10:21:24.461Z,101485.13
2023-03-29T10:23:59.402Z,101461.59
2023-03-29T10:26:32.738Z,101446.50
2023-03-29T10:29:06.237Z,101449.13
2023-03-29T10:31:41.629Z,101459.63
2023-03-29T10:34:13.967Z,101442.66
2023-03-29T10:36:53.730Z,101428.97
2023-03-29T10:39:21.780Z,101435.06
2023-03-29T10:41:53.171Z,101432.13
2023-03-29T10:44:36.392Z,101439.19
2023-03-29T10:47:16.832Z,101428.56
2023-03-29T10:49:51.024Z,101420.59
2023-03-29T10:52:18.770Z,101415.88
2023-03-29T10:54:47.314Z,101409.81
2023-03-29T10:57:41.912Z,101418.94
2023-03-29T11:00:29.187Z,101408.31
2023-03-29T11:03:23.390Z,101407.47
2023-03-29T11:06:08.276Z,101421.13
2023-03-29T11:08:52.717Z,101414.34
2023-03-29T11:11:35.832Z,101401.06
2023-03-29T11:14:17.171Z,101388.97
2023-03-29T11:17:02.374Z,101401.09
2023-03-29T11:19:29.801Z,101410.47
2023-03-29T11:22:12.930Z,101409.16
2023-03-29T11:25:19.063Z,101398.50
2023-03-29T11:28:10.861Z,101385.19
2023-03-29T11:30:42.896Z,101387.81
2023-03-29T11:33:19.113Z,101387.19
2023-03-29T11:36:20.166Z,101382.00
2023-03-29T11:39:04.480Z,101381.63
2023-03-29T11:41:36.109Z,101378.59
2023-03-29T11:44:06.321Z,101379.25
2023-03-29T11:46:47.161Z,101380.59
2023-03-29T11:49:29.964Z,101382.16
2023-03-29T11:52:06.414Z,101393.59
2023-03-29T11:54:38.296Z,101382.41
2023-03-29T11:57:13.849Z,101382.16
2023-03-29T11:59:55.080Z,101375.56
2023-03-29T12:02:35.948Z,101375.97
2023-03-29T12:05:20.209Z,101375.16
2023-03-29T12:07:53.685Z,101365.84
2023-03-29T12:10:26.498Z,101360.47
2023-03-29T12:13:12.026Z,101351.72
2023-03-29T12:15:49.753Z,101347.09
2023-03-29T12:18:22.802Z,101349.28
2023-03-29T12:20:57.588Z,101344.00
2023-03-29T12:23:31.036Z,101341.56
2023-03-29T12:26:04.689Z,101340.06
2023-03-29T12:28:34.614Z,101343.44
2023-03-29T12:31:29.173Z,101332.16
2023-03-29T12:34:22.731Z,101338.69
2023-03-29T12:37:40.622Z,101335.25
2023-03-29T12:40:28.487Z,101330.13
2023-03-29T12:43:24.343Z,101331.41
2023-03-29T12:46:16.748Z,101332.41
2023-03-29T12:48:47.438Z,101331.63
2023-03-29T12:51:18.291Z,101311.69
2023-03-29T12:53:48.979Z,101325.03
2023-03-29T12:56:20.856Z,101318.63
2023-03-29T12:58:54.220Z,101310.72
2023-03-29T13:01:35.288Z,101309.69
2023-03-29T13:04:49.274Z,101324.16
2023-03-29T13:07:22.606Z,101317.88
2023-03-29T13:09:51.617Z,101303.59
2023-03-29T13:12:40.957Z,101296.25
2023-03-29T13:15:17.633Z,101291.66
2023-03-29T13:18:14.140Z,101298.25
2023-03-29T13:21:10.749Z,101296.00
2023-03-29T13:23:49.831Z,101281.63
2023-03-29T13:26:47.798Z,101290.56
2023-03-29T13:29:30.225Z,101285.63
2023-03-29T13:32:29.139Z,101282.78
2023-03-29T13:35:15.719Z,101286.91
2023-03-29T13:37:57.782Z,101288.66
2023-03-29T13:40:28.437Z,101277.38
2023-03-29T13:43:09.762Z,101280.41
2023-03-29T13:45:37.710Z,101283.13
2023-03-29T13:48:29.526Z,101275.34
2023-03-29T13:51:02.137Z,101271.63
2023-03-29T13:53:43.984Z,101268.47
2023-03-29T13:56:15.437Z,101270.84
2023-03-29T13:58:53.586Z,101267.88
2023-03-29T14:01:39.217Z,101270.84
2023-03-29T14:04:12.955Z,101259.69
2023-03-29T14:06:45.735Z,101254.50
2023-03-29T14:09:15.458Z,101253.03
2023-03-29T14:11:46.545Z,101258.38
2023-03-29T14:14:14.897Z,101254.22
2023-03-29T14:16:42.403Z,101262.91
2023-03-29T14:19:19.186Z,101256.66
2023-03-29T14:21:46.611Z,101246.88
2023-03-29T14:24:21.060Z,101249.25
2023-03-29T14:26:48.966Z,101237.91
2023-03-29T14:29:18.210Z,101234.13
2023-03-29T14:31:46.102Z,101233.91
2023-03-29T14:34:16.099Z,101231.97
2023-03-29T14:36:49.322Z,101228.75
2023-03-29T14:39:20.297Z,101234.00
2023-03-29T14:41:53.306Z,101238.31
2023-03-29T14:44:23.786Z,101246.81
2023-03-29T14:46:51.413Z,101235.91
2023-03-29T14:49:21.537Z,101243.19
2023-03-29T14:51:50.468Z,101242.06
2023-03-29T14:54:23.257Z,101235.09
2023-03-29T14:56:52.465Z,101239.16
2023-03-29T14:59:37.229Z,101240.25
2023-03-29T15:02:05.056Z,101248.75
2023-03-29T15:04:34.365Z,101238.31
2023-03-29T15:07:04.230Z,101245.00
2023-03-29T15:09:34.707Z,101242.94
2023-03-29T15:12:03.534Z,101247.69
2023-03-29T15:14:38.046Z,101236.06
2023-03-29T15:17:22.217Z,101237.69
2023-03-29T15:19:59.234Z,101232.75
2023-03-29T15:22:33.984Z,101228.59
2023-03-29T15:25:02.628Z,101224.16
2023-03-29T15:27:41.787Z,101223.44
2023-03-29T15:30:16.212Z,101236.06
2023-03-29T15:32:44.287Z,101234.22
2023-03-29T15:35:24.824Z,101238.94
2023-03-29T15:37:57.339Z,101236.50
2023-03-29T15:40:31.338Z,101230.50
2023-03-29T15:43:01.919Z,101236.16
2023-03-29T15:45:29.421Z,101226.94
2023-03-29T15:47:57.481Z,101228.44
2023-03-29T15:50:26.508Z,101225.28
2023-03-29T15:53:08.594Z,101217.75
2023-03-29T15:55:45.236Z,101221.47
2023-03-29T15:58:19.008Z,101219.94
2023-03-29T16:01:34.778Z,101223.03
2023-03-29T16:04:04.446Z,101213.31
2023-03-29T16:06:33.335Z,101205.13
2023-03-29T16:09:01.020Z,101202.44
2023-03-29T16:11:28.641Z,101204.88
2023-03-29T16:13:56.978Z,101203.31
2023-03-29T16:16:24.795Z,101200.44
2023-03-29T16:18:52.237Z,101190.91
2023-03-29T16:21:22.380Z,101195.56
2023-03-29T16:23:50.064Z,101190.19
2023-03-29T16:26:17.685Z,101203.72
2023-03-29T16:28:44.988Z,101193.91
2023-03-29T16:31:15.005Z,101202.09
2023-03-29T16:33:42.390Z,101201.53
2023-03-29T16:36:10.585Z,101213.44
2023-03-29T16:38:38.378Z,101212.78
2023-03-29T16:41:06.157Z,101203.72
2023-03-29T16:43:33.640Z,101206.25
2023-03-29T16:46:06.880Z,101207.84
2023-03-29T16:48:34.819Z,101203.75
2023-03-29T16:51:03.063Z,101202.03
2023-03-29T16:53:30.603Z,101209.75
2023-03-29T16:55:57.973Z,101216.81
2023-03-29T16:58:25.642Z,101224.78
2023-03-29T17:00:53.822Z,101220.44
2023-03-29T17:03:21.185Z,101216.75
2023-03-29T17:05:54.025Z,101219.88
2023-03-29T17:08:21.813Z,101222.03
2023-03-29T17:10:54.012Z,101226.78
2023-03-29T17:13:23.940Z,101229.00
2023-03-29T17:15:52.709Z,101223.75
2023-03-29T17:18:21.084Z,101221.19
2023-03-29T17:20:50.676Z,101219.44
2023-03-29T17:23:18.545Z,101227.88
2023-03-29T17:25:45.924Z,101229.78
2023-03-29T17:28:13.233Z,101229.78
2023-03-29T17:30:40.770Z,101233.66
2023-03-29T17:33:08.883Z,101227.75
2023-03-29T17:35:36.362Z,101236.13
2023-03-29T17:38:03.967Z,101232.06
2023-03-29T17:40:31.317Z,101239.47
2023-03-29T17:42:58.699Z,101238.66
2023-03-29T17:45:26.440Z,101246.91
2023-03-29T17:47:53.829Z,101246.13
2023-03-29T17:50:21.650Z,101249.91
2023-03-29T17:52:49.211Z,101250.09
2023-03-29T17:55:16.784Z,101250.97
2023-03-29T17:57:44.078Z,101259.19
2023-03-29T18:00:13.888Z,101261.22
2023-03-29T18:02:42.180Z,101274.78
2023-03-29T18:05:10.427Z,101265.53
2023-03-29T18:07:37.865Z,101267.16
2023-03-29T18:10:06.469Z,101275.47
2023-03-29T18:12:33.791Z,101290.56
2023-03-29T18:15:01.433Z,101301.56
2023-03-29T18:17:28.898Z,101284.72
2023-03-29T18:19:56.309Z,101304.31
2023-03-29T18:22:24.243Z,101304.66
2023-03-29T18:24:51.832Z,101294.91
2023-03-29T18:27:19.879Z,101306.59
2023-03-29T18:29:47.346Z,101316.44
2023-03-29T18:32:14.856Z,101308.47
2023-03-29T18:34:42.419Z,101307.84
2023-03-29T18:37:14.595Z,101317.78
2023-03-29T18:39:41.940Z,101332.00
2023-03-29T18:42:12.110Z,101325.03
2023-03-29T18:44:40.691Z,101324.22
2023-03-29T18:47:08.677Z,101330.59
2023-03-29T18:49:36.852Z,101333.34
2023-03-29T18:52:05.801Z,101339.81
2023-03-29T18:54:33.374Z,101352.28
2023-03-29T18:57:01.312Z,101349.66
2023-03-29T18:59:28.676Z,101353.41
2023-03-29T19:01:56.397Z,101352.53
2023-03-29T19:04:26.827Z,101361.41
2023-03-29T19:06:56.409Z,101359.72
2023-03-29T19:09:24.175Z,101349.09
2023-03-29T19:11:51.868Z,101354.59
2023-03-29T19:14:23.645Z,101356.47
2023-03-29T19:16:52.766Z,101355.78
2023-03-29T19:19:23.788Z,101355.81
2023-03-29T19:21:55.002Z,101357.72
2023-03-29T19:24:23.132Z,101355.88
2023-03-29T19:26:52.444Z,101359.53
2023-03-29T19:29:20.827Z,101363.28
2023-03-29T19:31:48.698Z,101363.47
2023-03-29T19:34:19.633Z,101368.81
2023-03-29T19:36:48.412Z,101371.56
2023-03-29T19:39:17.033Z,101376.09
2023-03-29T19:41:46.819Z,101369.09
2023-03-29T19:44:15.822Z,101374.41
2023-03-29T19:46:43.345Z,101373.53
2023-03-29T19:49:13.719Z,101365.44
2023-03-29T19:51:43.158Z,101376.28
2023-03-29T19:54:14.187Z,101381.88
2023-03-29T19:56:44.091Z,101373.81
2023-03-29T19:59:15.766Z,101383.06
2023-03-29T20:01:52.245Z,101385.81
2023-03-29T20:04:24.874Z,101393.88
2023-03-29T20:06:53.366Z,101389.59
2023-03-29T20:09:23.972Z,101388.81
2023-03-29T20:11:55.546Z,101385.81
2023-03-29T20:14:24.394Z,101392.00
2023-03-29T20:16:58.525Z,101387.56
2023-03-29T20:19:31.074Z,101389.72
2023-03-29T20:22:00.710Z,101395.06
2023-03-29T20:24:31.472Z,101403.00
2023-03-29T20:27:01.589Z,101406.88
2023-03-29T20:29:29.938Z,101405.13
2023-03-29T20:32:03.052Z,101406.72
2023-03-29T20:34:30.776Z,101405.66
2023-03-29T20:37:00.881Z,101401.19
2023-03-29T20:39:29.616Z,101403.25
2023-03-29T20:41:59.662Z,101411.03
2023-03-29T20:44:28.363Z,101409.41
2023-03-29T20:47:06.669Z,101404.91
2023-03-29T20:49:39.512Z,101409.00
2023-03-29T20:52:15.429Z,101414.66
2023-03-29T20:54:44.985Z,101413.75
2023-03-29T20:57:15.955Z,101411.84
2023-03-29T20:59:44.516Z,101427.06
2023-03-29T21:02:19.199Z,101437.75
2023-03-29T21:04:53.893Z,101424.25
2023-03-29T21:07:21.710Z,101422.69
2023-03-29T21:09:50.307Z,101428.94
2023-03-29T21:12:17.768Z,101428.06
2023-03-29T21:14:45.118Z,101435.94
2023-03-29T21:17:12.401Z,101428.78
2023-03-29T21:19:39.737Z,101434.91
2023-03-29T21:22:14.659Z,101425.38
2023-03-29T21:24:42.112Z,101421.22
2023-03-29T21:27:09.528Z,101412.56
2023-03-29T21:29:36.947Z,101427.69
2023-03-29T21:32:04.748Z,101403.47
2023-03-29T21:34:32.254Z,101397.34
2023-03-29T21:36:59.686Z,101408.44
2023-03-29T21:39:27.711Z,101408.59
2023-03-29T21:41:55.984Z,101418.47
2023-03-29T21:44:23.392Z,101417.66
2023-03-29T21:46:51.071Z,101423.28
2023-03-29T21:49:18.775Z,101419.00
2023-03-29T21:51:46.478Z,101435.97
2023-03-29T21:54:13.983Z,101430.63
2023-03-29T21:56:41.544Z,101428.06
2023-03-29T21:59:09.034Z,101427.91
2023-03-29T22:01:36.516Z,101429.66
2023-03-29T22:04:04.342Z,101423.38
2023-03-29T22:06:32.043Z,101407.94
2023-03-29T22:09:00.777Z,101413.34
2023-03-29T22:11:31.165Z,101409.06
2023-03-29T22:13:58.578Z,101407.06
2023-03-29T22:16:26.112Z,101408.28
2023-03-29T22:18:54.362Z,101413.66
2023-03-29T22:21:24.293Z,101413.69
2023-03-29T22:23:54.449Z,101408.50
2023-03-29T22:26:26.847Z,101403.28
2023-03-29T22:28:54.866Z,101386.38
2023-03-29T22:31:23.917Z,101396.91
2023-03-29T22:33:51.470Z,101409.41
2023-03-29T22:36:26.254Z,101398.00
2023-03-29T22:38:54.033Z,101402.44
2023-03-29T22:41:27.731Z,101395.06
2023-03-29T22:43:57.199Z,101391.75
2023-03-29T22:46:25.363Z,101398.41
2023-03-29T22:48:53.282Z,101405.50
2023-03-29T22:51:21.234Z,101395.28
2023-03-29T22:53:48.885Z,101402.09
2023-03-29T22:56:17.224Z,101388.63
2023-03-29T22:58:45.012Z,101406.53
2023-03-29T23:01:12.736Z,101402.47
2023-03-29T23:03:40.135Z,101411.34
2023-03-29T23:06:08.042Z,101429.19
2023-03-29T23:08:35.537Z,101401.66
2023-03-29T23:11:03.599Z,101391.69
2023-03-29T23:13:33.691Z,101399.72
2023-03-29T23:16:02.457Z,101394.56
2023-03-29T23:18:31.756Z,101413.13
2023-03-29T23:20:59.159Z,101419.41
2023-03-29T23:23:28.144Z,101417.00
2023-03-29T23:25:56.483Z,101427.03
2023-03-29T23:28:27.423Z,101430.69
2023-03-29T23:31:03.575Z,101433.44
2023-03-29T23:33:35.315Z,101421.94
2023-03-29T23:36:05.996Z,101422.81
2023-03-29T23:38:35.422Z,101424.84
2023-03-29T23:41:05.796Z,101428.41
2023-03-29T23:43:35.700Z,101425.03
2023-03-29T23:46:06.978Z,101438.44
2023-03-29T23:48:34.625Z,101429.56
2023-03-29T23:51:03.601Z,101440.13
2023-03-29T23:53:31.647Z,101433.97
2023-03-29T23:56:01.351Z,101442.88
2023-03-29T23:58:34.302Z,101425.28
